sensor_id;sensor_type;location;lat;lon;timestamp;temperature;humidity
19248;DHT22;9758;48.640;8.148;2023-04-06T10:11:32;13.20;41.60
19248;DHT22;9758;48.640;8.148;2023-04-06T10:14:35;13.30;41.90
19248;DHT22;9758;48.640;8.148;2023-04-06T10:23:39;13.10;40.00
19248;DHT22;9758;48.640;8.148;2023-04-06T10:59:12;14.60;40.80
19248;DHT22;9758;48.640;8.148;2023-04-06T11:02:25;14.70;40.00
19248;DHT22;9758;48.640;8.148;2023-04-06T11:05:19;14.70;40.20
19248;DHT22;9758;48.640;8.148;2023-04-06T11:08:09;14.80;40.30
19248;DHT22;9758;48.640;8.148;2023-04-06T11:11:03;14.80;40.00
19248;DHT22;9758;48.640;8.148;2023-04-06T11:13:48;14.90;40.20
19248;DHT22;9758;48.640;8.148;2023-04-06T11:16:42;15.10;40.50
19248;DHT22;9758;48.640;8.148;2023-04-06T11:19:23;15.20;40.10
19248;DHT22;9758;48.640;8.148;2023-04-06T11:22:11;15.30;40.70
19248;DHT22;9758;48.640;8.148;2023-04-06T11:24:42;15.20;39.30
19248;DHT22;9758;48.640;8.148;2023-04-06T11:27:10;15.10;38.70
19248;DHT22;9758;48.640;8.148;2023-04-06T11:29:43;15.10;38.90
19248;DHT22;9758;48.640;8.148;2023-04-06T11:35:52;15.00;38.00
19248;DHT22;9758;48.640;8.148;2023-04-06T11:39:01;15.00;38.90
19248;DHT22;9758;48.640;8.148;2023-04-06T11:41:53;15.00;38.20
19248;DHT22;9758;48.640;8.148;2023-04-06T11:45:06;14.90;37.90
19248;DHT22;9758;48.640;8.148;2023-04-06T11:47:58;14.90;36.20
19248;DHT22;9758;48.640;8.148;2023-04-06T11:50:56;14.90;38.40
19248;DHT22;9758;48.640;8.148;2023-04-06T11:53:45;14.90;37.90
19248;DHT22;9758;48.640;8.148;2023-04-06T11:56:33;14.90;38.30
19248;DHT22;9758;48.640;8.148;2023-04-06T11:59:21;15.00;37.90
19248;DHT22;9758;48.640;8.148;2023-04-06T12:02:13;15.00;35.60
19248;DHT22;9758;48.640;8.148;2023-04-06T12:04:46;15.00;37.70
19248;DHT22;9758;48.640;8.148;2023-04-06T12:14:22;15.30;37.40
19248;DHT22;9758;48.640;8.148;2023-04-06T12:17:13;15.50;37.70
19248;DHT22;9758;48.640;8.148;2023-04-06T12:19:51;15.50;36.30
19248;DHT22;9758;48.640;8.148;2023-04-06T12:22:52;15.60;36.10
19248;DHT22;9758;48.640;8.148;2023-04-06T12:25:39;15.60;36.90
19248;DHT22;9758;48.640;8.148;2023-04-06T12:28:41;15.60;37.40
19248;DHT22;9758;48.640;8.148;2023-04-06T12:31:34;15.70;36.70
19248;DHT22;9758;48.640;8.148;2023-04-06T12:34:30;15.70;37.40
19248;DHT22;9758;48.640;8.148;2023-04-06T12:40:47;15.70;37.40
19248;DHT22;9758;48.640;8.148;2023-04-06T12:43:35;15.80;36.60
19248;DHT22;9758;48.640;8.148;2023-04-06T12:46:30;15.90;37.30
19248;DHT22;9758;48.640;8.148;2023-04-06T12:49:17;16.00;37.10
19248;DHT22;9758;48.640;8.148;2023-04-06T12:52:07;16.10;37.10
19248;DHT22;9758;48.640;8.148;2023-04-06T12:55:25;16.20;36.00
19248;DHT22;9758;48.640;8.148;2023-04-06T12:58:07;16.20;36.70
19248;DHT22;9758;48.640;8.148;2023-04-06T13:01:18;16.20;37.30
19248;DHT22;9758;48.640;8.148;2023-04-06T13:07:50;16.40;35.10
19248;DHT22;9758;48.640;8.148;2023-04-06T13:10:30;16.40;37.00
19248;DHT22;9758;48.640;8.148;2023-04-06T13:13:04;16.50;37.20
19248;DHT22;9758;48.640;8.148;2023-04-06T13:15:54;16.60;36.30
19248;DHT22;9758;48.640;8.148;2023-04-06T13:21:33;16.50;35.80
19248;DHT22;9758;48.640;8.148;2023-04-06T13:24:13;16.40;36.60
19248;DHT22;9758;48.640;8.148;2023-04-06T13:26:58;16.50;36.60
19248;DHT22;9758;48.640;8.148;2023-04-06T13:29:32;16.50;35.00
19248;DHT22;9758;48.640;8.148;2023-04-06T13:32:04;16.50;36.40
19248;DHT22;9758;48.640;8.148;2023-04-06T13:34:49;16.40;36.60
19248;DHT22;9758;48.640;8.148;2023-04-06T13:37:39;16.50;37.00
19248;DHT22;9758;48.640;8.148;2023-04-06T13:40:18;16.60;36.10
19248;DHT22;9758;48.640;8.148;2023-04-06T13:42:56;16.60;37.00
19248;DHT22;9758;48.640;8.148;2023-04-06T13:45:34;16.70;36.90
19248;DHT22;9758;48.640;8.148;2023-04-06T13:48:27;16.80;36.80
19248;DHT22;9758;48.640;8.148;2023-04-06T13:51:31;16.70;35.20
19248;DHT22;9758;48.640;8.148;2023-04-06T13:54:25;16.60;35.70
19248;DHT22;9758;48.640;8.148;2023-04-06T13:57:08;16.50;36.00
19248;DHT22;9758;48.640;8.148;2023-04-06T13:59:37;16.40;36.40
19248;DHT22;9758;48.640;8.148;2023-04-06T14:02:20;16.40;36.50
19248;DHT22;9758;48.640;8.148;2023-04-06T14:05:03;16.40;36.50
19248;DHT22;9758;48.640;8.148;2023-04-06T14:07:45;16.40;36.70
19248;DHT22;9758;48.640;8.148;2023-04-06T14:10:37;16.50;36.90
19248;DHT22;9758;48.640;8.148;2023-04-06T14:13:06;16.60;36.00
19248;DHT22;9758;48.640;8.148;2023-04-06T14:15:50;16.50;35.70
19248;DHT22;9758;48.640;8.148;2023-04-06T14:18:37;16.40;36.50
19248;DHT22;9758;48.640;8.148;2023-04-06T14:24:29;16.40;36.40
19248;DHT22;9758;48.640;8.148;2023-04-06T14:30:23;16.10;35.60
19248;DHT22;9758;48.640;8.148;2023-04-06T14:33:12;15.90;35.60
19248;DHT22;9758;48.640;8.148;2023-04-06T14:35:44;15.80;36.20
19248;DHT22;9758;48.640;8.148;2023-04-06T14:41:51;15.80;36.70
19248;DHT22;9758;48.640;8.148;2023-04-06T14:48:05;15.90;36.90
19248;DHT22;9758;48.640;8.148;2023-04-06T14:50:38;15.90;36.40
19248;DHT22;9758;48.640;8.148;2023-04-06T14:53:52;16.00;36.90
19248;DHT22;9758;48.640;8.148;2023-04-06T14:56:36;16.10;36.80
19248;DHT22;9758;48.640;8.148;2023-04-06T14:59:06;16.10;36.40
19248;DHT22;9758;48.640;8.148;2023-04-06T15:01:56;16.10;36.50
19248;DHT22;9758;48.640;8.148;2023-04-06T15:04:45;16.10;36.00
19248;DHT22;9758;48.640;8.148;2023-04-06T15:07:28;16.00;36.20
19248;DHT22;9758;48.640;8.148;2023-04-06T15:10:14;15.90;36.60
19248;DHT22;9758;48.640;8.148;2023-04-06T15:12:58;15.90;36.70
19248;DHT22;9758;48.640;8.148;2023-04-06T15:15:50;15.90;36.50
19248;DHT22;9758;48.640;8.148;2023-04-06T15:19:02;15.80;36.30
19248;DHT22;9758;48.640;8.148;2023-04-06T15:21:44;15.70;36.40
19248;DHT22;9758;48.640;8.148;2023-04-06T15:24:41;15.70;36.70
19248;DHT22;9758;48.640;8.148;2023-04-06T15:27:41;15.60;37.00
19248;DHT22;9758;48.640;8.148;2023-04-06T15:30:51;15.70;37.10
19248;DHT22;9758;48.640;8.148;2023-04-06T15:33:46;15.80;37.10
19248;DHT22;9758;48.640;8.148;2023-04-06T15:39:37;15.70;36.80
19248;DHT22;9758;48.640;8.148;2023-04-06T15:42:07;15.80;37.40
19248;DHT22;9758;48.640;8.148;2023-04-06T15:44:54;15.70;36.90
19248;DHT22;9758;48.640;8.148;2023-04-06T15:47:23;15.80;37.00
19248;DHT22;9758;48.640;8.148;2023-04-06T15:52:40;15.80;37.00
19248;DHT22;9758;48.640;8.148;2023-04-06T15:55:11;15.70;37.00
19248;DHT22;9758;48.640;8.148;2023-04-06T15:57:41;15.80;37.00
19248;DHT22;9758;48.640;8.148;2023-04-06T16:00:21;15.80;37.00
19248;DHT22;9758;48.640;8.148;2023-04-06T16:03:08;15.80;37.00
19248;DHT22;9758;48.640;8.148;2023-04-06T16:05:48;15.80;36.80
19248;DHT22;9758;48.640;8.148;2023-04-06T16:09:06;15.70;36.40
19248;DHT22;9758;48.640;8.148;2023-04-06T16:12:01;15.60;37.00
19248;DHT22;9758;48.640;8.148;2023-04-06T16:14:28;15.60;37.00
19248;DHT22;9758;48.640;8.148;2023-04-06T16:16:55;15.50;37.00
19248;DHT22;9758;48.640;8.148;2023-04-06T16:19:22;15.50;37.10
19248;DHT22;9758;48.640;8.148;2023-04-06T16:21:51;15.40;37.20
19248;DHT22;9758;48.640;8.148;2023-04-06T16:24:20;15.30;36.80
19248;DHT22;9758;48.640;8.148;2023-04-06T16:26:50;15.20;37.20
19248;DHT22;9758;48.640;8.148;2023-04-06T16:29:16;15.10;37.50
19248;DHT22;9758;48.640;8.148;2023-04-06T16:31:45;15.00;37.50
19248;DHT22;9758;48.640;8.148;2023-04-06T16:34:12;14.90;37.30
19248;DHT22;9758;48.640;8.148;2023-04-06T16:36:40;14.80;37.10
19248;DHT22;9758;48.640;8.148;2023-04-06T16:39:07;14.70;37.60
19248;DHT22;9758;48.640;8.148;2023-04-06T16:41:36;14.60;37.60
19248;DHT22;9758;48.640;8.148;2023-04-06T16:44:04;14.50;37.80
19248;DHT22;9758;48.640;8.148;2023-04-06T16:46:31;14.30;37.60
19248;DHT22;9758;48.640;8.148;2023-04-06T16:48:58;14.20;37.80
19248;DHT22;9758;48.640;8.148;2023-04-06T16:51:24;14.10;37.80
19248;DHT22;9758;48.640;8.148;2023-04-06T16:53:52;14.00;38.20
19248;DHT22;9758;48.640;8.148;2023-04-06T16:56:19;14.00;38.30
19248;DHT22;9758;48.640;8.148;2023-04-06T16:58:47;14.00;38.40
19248;DHT22;9758;48.640;8.148;2023-04-06T17:01:17;14.00;38.90
19248;DHT22;9758;48.640;8.148;2023-04-06T17:03:45;14.00;38.30
19248;DHT22;9758;48.640;8.148;2023-04-06T17:06:11;14.00;38.30
19248;DHT22;9758;48.640;8.148;2023-04-06T17:08:40;14.00;38.20
19248;DHT22;9758;48.640;8.148;2023-04-06T17:11:07;13.90;38.20
19248;DHT22;9758;48.640;8.148;2023-04-06T17:13:34;13.80;38.40
19248;DHT22;9758;48.640;8.148;2023-04-06T17:16:02;13.70;38.50
19248;DHT22;9758;48.640;8.148;2023-04-06T17:18:29;13.70;38.50
19248;DHT22;9758;48.640;8.148;2023-04-06T17:20:56;13.70;38.70
19248;DHT22;9758;48.640;8.148;2023-04-06T17:23:23;13.70;38.70
19248;DHT22;9758;48.640;8.148;2023-04-06T17:25:50;13.70;38.80
19248;DHT22;9758;48.640;8.148;2023-04-06T17:28:18;13.70;38.80
19248;DHT22;9758;48.640;8.148;2023-04-06T17:30:45;13.70;38.80
19248;DHT22;9758;48.640;8.148;2023-04-06T17:33:13;13.60;38.80
19248;DHT22;9758;48.640;8.148;2023-04-06T17:35:41;13.60;38.90
19248;DHT22;9758;48.640;8.148;2023-04-06T17:38:08;13.50;39.10
19248;DHT22;9758;48.640;8.148;2023-04-06T17:40:34;13.60;39.20
19248;DHT22;9758;48.640;8.148;2023-04-06T17:43:02;13.60;39.10
19248;DHT22;9758;48.640;8.148;2023-04-06T17:45:29;13.60;39.10
19248;DHT22;9758;48.640;8.148;2023-04-06T17:47:56;13.60;39.20
19248;DHT22;9758;48.640;8.148;2023-04-06T17:50:24;13.50;39.20
19248;DHT22;9758;48.640;8.148;2023-04-06T17:52:51;13.40;39.30
19248;DHT22;9758;48.640;8.148;2023-04-06T17:55:18;13.20;39.50
19248;DHT22;9758;48.640;8.148;2023-04-06T17:57:47;13.10;39.60
19248;DHT22;9758;48.640;8.148;2023-04-06T18:00:14;13.00;39.80
19248;DHT22;9758;48.640;8.148;2023-04-06T18:02:44;13.00;39.90
19248;DHT22;9758;48.640;8.148;2023-04-06T18:05:12;13.00;39.90
19248;DHT22;9758;48.640;8.148;2023-04-06T18:07:40;13.00;40.40
19248;DHT22;9758;48.640;8.148;2023-04-06T18:10:08;12.90;39.90
19248;DHT22;9758;48.640;8.148;2023-04-06T18:12:35;13.00;40.00
19248;DHT22;9758;48.640;8.148;2023-04-06T18:15:02;13.00;39.90
19248;DHT22;9758;48.640;8.148;2023-04-06T18:17:29;13.00;40.00
19248;DHT22;9758;48.640;8.148;2023-04-06T18:19:56;12.90;40.60
19248;DHT22;9758;48.640;8.148;2023-04-06T18:22:22;12.90;40.10
19248;DHT22;9758;48.640;8.148;2023-04-06T18:24:51;12.90;40.10
19248;DHT22;9758;48.640;8.148;2023-04-06T18:27:18;13.00;40.20
19248;DHT22;9758;48.640;8.148;2023-04-06T18:29:46;13.00;40.30
19248;DHT22;9758;48.640;8.148;2023-04-06T18:32:14;12.90;40.20
19248;DHT22;9758;48.640;8.148;2023-04-06T18:34:41;13.00;40.40
19248;DHT22;9758;48.640;8.148;2023-04-06T18:37:08;13.00;40.50
19248;DHT22;9758;48.640;8.148;2023-04-06T18:39:34;12.90;40.60
19248;DHT22;9758;48.640;8.148;2023-04-06T18:42:03;12.90;40.60
19248;DHT22;9758;48.640;8.148;2023-04-06T18:44:30;12.90;40.70
19248;DHT22;9758;48.640;8.148;2023-04-06T18:46:57;12.90;40.70
19248;DHT22;9758;48.640;8.148;2023-04-06T18:49:24;12.90;40.90
19248;DHT22;9758;48.640;8.148;2023-04-06T18:51:51;12.80;40.90
19248;DHT22;9758;48.640;8.148;2023-04-06T18:54:18;12.80;40.90
19248;DHT22;9758;48.640;8.148;2023-04-06T18:56:46;12.80;41.00
19248;DHT22;9758;48.640;8.148;2023-04-06T18:59:15;12.70;41.10
19248;DHT22;9758;48.640;8.148;2023-04-06T19:01:43;12.70;41.20
19248;DHT22;9758;48.640;8.148;2023-04-06T19:04:15;12.60;41.30
19248;DHT22;9758;48.640;8.148;2023-04-06T19:06:41;12.60;41.30
19248;DHT22;9758;48.640;8.148;2023-04-06T19:09:09;12.60;41.50
19248;DHT22;9758;48.640;8.148;2023-04-06T19:11:35;12.50;41.50
19248;DHT22;9758;48.640;8.148;2023-04-06T19:14:02;12.50;41.50
19248;DHT22;9758;48.640;8.148;2023-04-06T19:16:30;12.50;41.60
19248;DHT22;9758;48.640;8.148;2023-04-06T19:18:57;12.40;41.60
19248;DHT22;9758;48.640;8.148;2023-04-06T19:21:25;12.40;41.70
19248;DHT22;9758;48.640;8.148;2023-04-06T19:23:53;12.40;41.70
19248;DHT22;9758;48.640;8.148;2023-04-06T19:26:20;12.30;41.70
19248;DHT22;9758;48.640;8.148;2023-04-06T19:28:48;12.30;41.80
19248;DHT22;9758;48.640;8.148;2023-04-06T19:31:17;12.30;42.00
19248;DHT22;9758;48.640;8.148;2023-04-06T19:33:46;12.30;42.10
19248;DHT22;9758;48.640;8.148;2023-04-06T19:36:14;12.30;42.10
19248;DHT22;9758;48.640;8.148;2023-04-06T19:38:41;12.20;42.20
19248;DHT22;9758;48.640;8.148;2023-04-06T19:41:08;12.20;42.30
19248;DHT22;9758;48.640;8.148;2023-04-06T19:43:35;12.20;42.30
19248;DHT22;9758;48.640;8.148;2023-04-06T19:46:03;12.10;42.30
19248;DHT22;9758;48.640;8.148;2023-04-06T19:51:20;12.00;42.50
19248;DHT22;9758;48.640;8.148;2023-04-06T19:53:47;11.90;42.40
19248;DHT22;9758;48.640;8.148;2023-04-06T19:56:14;11.80;42.70
19248;DHT22;9758;48.640;8.148;2023-04-06T19:58:49;11.70;42.80
19248;DHT22;9758;48.640;8.148;2023-04-06T20:01:16;11.70;42.90
19248;DHT22;9758;48.640;8.148;2023-04-06T20:03:43;11.60;43.00
19248;DHT22;9758;48.640;8.148;2023-04-06T20:06:14;11.60;42.90
19248;DHT22;9758;48.640;8.148;2023-04-06T20:08:57;11.60;42.90
19248;DHT22;9758;48.640;8.148;2023-04-06T20:11:24;11.50;42.90
19248;DHT22;9758;48.640;8.148;2023-04-06T20:14:05;11.50;43.10
19248;DHT22;9758;48.640;8.148;2023-04-06T20:16:45;11.50;43.10
19248;DHT22;9758;48.640;8.148;2023-04-06T20:19:26;11.50;43.10
19248;DHT22;9758;48.640;8.148;2023-04-06T20:22:07;11.50;43.90
19248;DHT22;9758;48.640;8.148;2023-04-06T20:24:39;11.50;43.20
19248;DHT22;9758;48.640;8.148;2023-04-06T20:27:06;11.50;43.40
19248;DHT22;9758;48.640;8.148;2023-04-06T20:29:35;11.40;43.20
19248;DHT22;9758;48.640;8.148;2023-04-06T20:32:16;11.40;43.30
19248;DHT22;9758;48.640;8.148;2023-04-06T20:34:45;11.50;43.30
19248;DHT22;9758;48.640;8.148;2023-04-06T20:37:12;11.50;43.30
19248;DHT22;9758;48.640;8.148;2023-04-06T20:39:57;11.50;43.30
19248;DHT22;9758;48.640;8.148;2023-04-06T20:42:25;11.50;43.30
19248;DHT22;9758;48.640;8.148;2023-04-06T20:44:52;11.50;43.20
19248;DHT22;9758;48.640;8.148;2023-04-06T20:47:27;11.50;43.20
19248;DHT22;9758;48.640;8.148;2023-04-06T20:49:56;11.50;43.30
19248;DHT22;9758;48.640;8.148;2023-04-06T20:52:23;11.50;43.30
19248;DHT22;9758;48.640;8.148;2023-04-06T20:55:05;11.50;43.30
19248;DHT22;9758;48.640;8.148;2023-04-06T20:57:33;11.50;43.20
19248;DHT22;9758;48.640;8.148;2023-04-06T21:00:00;11.60;43.30
19248;DHT22;9758;48.640;8.148;2023-04-06T21:02:27;11.60;43.40
19248;DHT22;9758;48.640;8.148;2023-04-06T21:05:02;11.60;43.30
19248;DHT22;9758;48.640;8.148;2023-04-06T21:07:43;11.60;43.30
19248;DHT22;9758;48.640;8.148;2023-04-06T21:10:25;11.60;43.40
19248;DHT22;9758;48.640;8.148;2023-04-06T21:12:53;11.60;43.40
19248;DHT22;9758;48.640;8.148;2023-04-06T21:15:22;11.60;43.40
19248;DHT22;9758;48.640;8.148;2023-04-06T21:17:49;11.60;43.30
19248;DHT22;9758;48.640;8.148;2023-04-06T21:20:16;11.60;43.40
19248;DHT22;9758;48.640;8.148;2023-04-06T21:22:42;11.60;43.30
19248;DHT22;9758;48.640;8.148;2023-04-06T21:25:09;11.60;43.50
19248;DHT22;9758;48.640;8.148;2023-04-06T21:27:38;11.60;43.40
19248;DHT22;9758;48.640;8.148;2023-04-06T21:30:06;11.60;43.50
19248;DHT22;9758;48.640;8.148;2023-04-06T21:32:34;11.60;43.50
19248;DHT22;9758;48.640;8.148;2023-04-06T21:35:05;11.60;43.50
19248;DHT22;9758;48.640;8.148;2023-04-06T21:37:33;11.60;43.50
19248;DHT22;9758;48.640;8.148;2023-04-06T21:40:01;11.60;43.60
19248;DHT22;9758;48.640;8.148;2023-04-06T21:42:28;11.60;43.50
19248;DHT22;9758;48.640;8.148;2023-04-06T21:45:04;11.60;43.60
19248;DHT22;9758;48.640;8.148;2023-04-06T21:47:33;11.60;43.90
19248;DHT22;9758;48.640;8.148;2023-04-06T21:50:00;11.60;43.70
19248;DHT22;9758;48.640;8.148;2023-04-06T21:52:27;11.60;43.60
19248;DHT22;9758;48.640;8.148;2023-04-06T21:54:54;11.60;43.70
19248;DHT22;9758;48.640;8.148;2023-04-06T21:57:21;11.60;43.70
19248;DHT22;9758;48.640;8.148;2023-04-06T21:59:48;11.60;43.70
19248;DHT22;9758;48.640;8.148;2023-04-06T22:02:17;11.60;43.70
19248;DHT22;9758;48.640;8.148;2023-04-06T22:04:45;11.60;43.70
19248;DHT22;9758;48.640;8.148;2023-04-06T22:07:12;11.60;43.70
19248;DHT22;9758;48.640;8.148;2023-04-06T22:09:39;11.60;43.70
19248;DHT22;9758;48.640;8.148;2023-04-06T22:12:07;11.60;43.70
19248;DHT22;9758;48.640;8.148;2023-04-06T22:14:34;11.60;43.70
19248;DHT22;9758;48.640;8.148;2023-04-06T22:17:01;11.60;43.80
19248;DHT22;9758;48.640;8.148;2023-04-06T22:19:29;11.60;43.80
19248;DHT22;9758;48.640;8.148;2023-04-06T22:21:57;11.60;43.70
19248;DHT22;9758;48.640;8.148;2023-04-06T22:24:26;11.60;43.70
19248;DHT22;9758;48.640;8.148;2023-04-06T22:26:53;11.70;43.90
19248;DHT22;9758;48.640;8.148;2023-04-06T22:29:21;11.70;43.80
19248;DHT22;9758;48.640;8.148;2023-04-06T22:31:47;11.70;43.80
19248;DHT22;9758;48.640;8.148;2023-04-06T22:34:14;11.70;43.90
19248;DHT22;9758;48.640;8.148;2023-04-06T22:36:42;11.60;43.90
19248;DHT22;9758;48.640;8.148;2023-04-06T22:39:09;11.60;43.80
19248;DHT22;9758;48.640;8.148;2023-04-06T22:41:36;11.60;43.90
19248;DHT22;9758;48.640;8.148;2023-04-06T22:44:03;11.60;44.00
19248;DHT22;9758;48.640;8.148;2023-04-06T22:46:29;11.60;44.00
19248;DHT22;9758;48.640;8.148;2023-04-06T22:48:56;11.60;43.90
19248;DHT22;9758;48.640;8.148;2023-04-06T22:51:24;11.60;44.00
19248;DHT22;9758;48.640;8.148;2023-04-06T22:53:53;11.60;44.00
19248;DHT22;9758;48.640;8.148;2023-04-06T22:56:20;11.60;44.00
19248;DHT22;9758;48.640;8.148;2023-04-06T22:58:47;11.60;44.10
19248;DHT22;9758;48.640;8.148;2023-04-06T23:01:15;11.60;44.00
19248;DHT22;9758;48.640;8.148;2023-04-06T23:03:42;11.60;44.10
19248;DHT22;9758;48.640;8.148;2023-04-06T23:06:09;11.60;44.10
19248;DHT22;9758;48.640;8.148;2023-04-06T23:08:36;11.60;44.30
19248;DHT22;9758;48.640;8.148;2023-04-06T23:11:04;11.60;44.10
19248;DHT22;9758;48.640;8.148;2023-04-06T23:13:31;11.60;44.10
19248;DHT22;9758;48.640;8.148;2023-04-06T23:15:58;11.60;44.10
19248;DHT22;9758;48.640;8.148;2023-04-06T23:18:25;11.60;44.10
19248;DHT22;9758;48.640;8.148;2023-04-06T23:20:51;11.60;44.20
19248;DHT22;9758;48.640;8.148;2023-04-06T23:23:18;11.60;44.20
19248;DHT22;9758;48.640;8.148;2023-04-06T23:25:46;11.60;44.30
19248;DHT22;9758;48.640;8.148;2023-04-06T23:28:14;11.60;44.30
19248;DHT22;9758;48.640;8.148;2023-04-06T23:30:42;11.60;44.40
19248;DHT22;9758;48.640;8.148;2023-04-06T23:33:08;11.60;44.40
19248;DHT22;9758;48.640;8.148;2023-04-06T23:35:36;11.60;44.60
19248;DHT22;9758;48.640;8.148;2023-04-06T23:38:03;11.60;44.60
19248;DHT22;9758;48.640;8.148;2023-04-06T23:40:30;11.50;44.60
19248;DHT22;9758;48.640;8.148;2023-04-06T23:42:57;11.50;44.70
19248;DHT22;9758;48.640;8.148;2023-04-06T23:45:42;11.50;44.80
19248;DHT22;9758;48.640;8.148;2023-04-06T23:48:09;11.40;44.90
19248;DHT22;9758;48.640;8.148;2023-04-06T23:50:50;11.40;45.30
19248;DHT22;9758;48.640;8.148;2023-04-06T23:53:24;11.40;45.10
19248;DHT22;9758;48.640;8.148;2023-04-06T23:56:05;11.20;45.20
19248;DHT22;9758;48.640;8.148;2023-04-06T23:58:48;11.20;45.20
